Time;durP1;ratioP1;P1;durP2;ratioP2;P2;SDS_P1;SDS_P2;PMS_P1;PMS_P2;Temp;Humidity;BMP_temperature;BMP_pressure;BME280_temperature;BME280_humidity;BME280_pressure;Samples;Min_cycle;Max_cycle;Signal;HPM_P1;HPM_P2
2023/03/31 00:02:20;;;;;;;2.95;1.50;;;;;;;;;;5070411;28;20020;-68
2023/03/31 00:04:51;;;;;;;6.55;1.90;;;;;;;;;;5071719;28;20436;-68
2023/03/31 00:07:20;;;;;;;14.68;2.15;;;;;;;;;;5083566;28;20501;-67
2023/03/31 00:09:46;;;;;;;6.50;1.75;;;;;;;;;;5085168;28;20043;-68
2023/03/31 00:12:12;;;;;;;3.47;1.60;;;;;;;;;;5071959;28;20028;-66
2023/03/31 00:14:38;;;;;;;9.07;1.92;;;;;;;;;;5075979;28;20032;-70
2023/03/31 00:17:03;;;;;;;5.57;2.00;;;;;;;;;;5079809;28;20126;-69
2023/03/31 00:19:32;;;;;;;7.95;2.03;;;;;;;;;;5070470;28;20084;-71
2023/03/31 00:22:00;;;;;;;6.25;1.73;;;;;;;;;;5071610;28;20048;-69
2023/03/31 00:24:26;;;;;;;9.65;2.08;;;;;;;;;;5071385;28;20017;-68
2023/03/31 00:26:51;;;;;;;11.88;2.15;;;;;;;;;;5070627;28;20150;-67
2023/03/31 00:29:16;;;;;;;10.77;2.13;;;;;;;;;;5081536;28;20473;-70
2023/03/31 00:31:41;;;;;;;4.28;1.35;;;;;;;;;;5078880;28;20028;-67
2023/03/31 00:34:07;;;;;;;7.68;2.13;;;;;;;;;;5068379;28;20035;-70
2023/03/31 00:36:35;;;;;;;5.43;1.73;;;;;;;;;;5070933;28;20425;-69
2023/03/31 00:39:05;;;;;;;5.25;1.60;;;;;;;;;;5071130;28;20025;-69
2023/03/31 00:41:31;;;;;;;5.53;1.73;;;;;;;;;;5071169;28;20382;-68
2023/03/31 00:44:23;;;;;;;2.95;1.25;;;;;;;;;;5070908;28;20032;-68
2023/03/31 00:46:53;;;;;;;8.90;2.35;;;;;;;;;;5059608;28;20036;-67
2023/03/31 00:49:22;;;;;;;5.55;1.60;;;;;;;;;;5070453;28;20115;-67
2023/03/31 00:51:50;;;;;;;6.85;1.60;;;;;;;;;;5071278;28;20027;-70
2023/03/31 00:54:18;;;;;;;4.85;1.55;;;;;;;;;;5071562;28;20059;-68
2023/03/31 00:56:46;;;;;;;8.50;1.83;;;;;;;;;;5069140;28;20111;-68
2023/03/31 00:59:13;;;;;;;3.95;1.65;;;;;;;;;;5069734;28;20639;-68
2023/03/31 01:01:41;;;;;;;6.95;1.83;;;;;;;;;;5082438;28;20108;-68
2023/03/31 01:04:08;;;;;;;2.80;1.55;;;;;;;;;;5069251;28;20029;-68
2023/03/31 01:06:36;;;;;;;6.65;1.75;;;;;;;;;;5076824;28;20031;-69
2023/03/31 01:09:05;;;;;;;7.18;1.30;;;;;;;;;;5081038;28;20021;-67
2023/03/31 01:11:30;;;;;;;9.50;2.00;;;;;;;;;;5070483;28;20423;-65
2023/03/31 01:13:56;;;;;;;8.85;1.60;;;;;;;;;;5068907;28;20039;-68
2023/03/31 01:16:21;;;;;;;5.35;1.48;;;;;;;;;;5077114;28;20024;-67
2023/03/31 01:18:48;;;;;;;6.00;1.50;;;;;;;;;;5069056;28;20024;-69
2023/03/31 01:21:17;;;;;;;7.00;1.55;;;;;;;;;;5070501;28;20020;-68
2023/03/31 01:23:46;;;;;;;6.35;1.42;;;;;;;;;;5068841;28;20049;-67
2023/03/31 01:26:11;;;;;;;7.43;2.25;;;;;;;;;;5068768;28;20023;-66
2023/03/31 01:28:58;;;;;;;6.20;1.38;;;;;;;;;;5076061;28;20020;-68
2023/03/31 01:31:30;;;;;;;2.70;1.50;;;;;;;;;;5073622;28;20040;-68
2023/03/31 01:34:04;;;;;;;9.75;1.50;;;;;;;;;;5068807;28;20035;-66
2023/03/31 01:36:48;;;;;;;9.02;1.73;;;;;;;;;;5071662;28;20032;-68
2023/03/31 01:39:31;;;;;;;9.05;2.20;;;;;;;;;;5069810;28;20020;-68
2023/03/31 01:42:02;;;;;;;7.97;2.35;;;;;;;;;;5069892;28;20032;-69
2023/03/31 01:45:06;;;;;;;10.23;2.22;;;;;;;;;;5069443;28;20051;-66
2023/03/31 01:47:39;;;;;;;4.65;1.50;;;;;;;;;;4975420;28;20123;-68
2023/03/31 01:50:07;;;;;;;13.63;1.70;;;;;;;;;;4985325;28;20028;-65
2023/03/31 01:52:50;;;;;;;3.90;1.80;;;;;;;;;;5031592;28;20393;-69
2023/03/31 01:55:16;;;;;;;5.75;1.70;;;;;;;;;;5069477;28;20031;-67
2023/03/31 01:57:50;;;;;;;7.30;1.75;;;;;;;;;;5067880;28;20028;-67
2023/03/31 02:00:18;;;;;;;5.15;1.45;;;;;;;;;;5069408;28;20031;-68
2023/03/31 02:02:47;;;;;;;5.78;1.60;;;;;;;;;;5068197;28;20405;-67
2023/03/31 02:05:20;;;;;;;7.35;1.92;;;;;;;;;;5069695;28;20038;-66
2023/03/31 02:07:49;;;;;;;5.10;1.70;;;;;;;;;;5072551;28;20119;-69
2023/03/31 02:10:15;;;;;;;5.72;1.67;;;;;;;;;;5072137;28;20021;-66
2023/03/31 02:12:42;;;;;;;7.15;2.05;;;;;;;;;;5069293;28;20025;-66
2023/03/31 02:15:09;;;;;;;7.85;1.77;;;;;;;;;;5069166;28;20051;-69
2023/03/31 02:17:38;;;;;;;6.53;1.92;;;;;;;;;;5067299;28;20032;-66
2023/03/31 02:20:06;;;;;;;9.10;2.00;;;;;;;;;;5069213;28;20016;-68
2023/03/31 02:22:33;;;;;;;9.30;2.25;;;;;;;;;;5073646;28;20055;-66
2023/03/31 02:24:59;;;;;;;4.90;1.70;;;;;;;;;;5089395;28;20020;-70
2023/03/31 02:27:27;;;;;;;4.60;1.63;;;;;;;;;;5084302;28;20028;-67
2023/03/31 02:29:52;;;;;;;10.02;2.15;;;;;;;;;;5085029;28;20030;-70
2023/03/31 02:32:24;;;;;;;11.80;2.10;;;;;;;;;;5052670;28;20119;-67
2023/03/31 02:34:49;;;;;;;7.43;2.15;;;;;;;;;;5069027;28;20417;-69
2023/03/31 02:37:15;;;;;;;13.48;2.10;;;;;;;;;;5078244;28;20035;-66
2023/03/31 02:39:41;;;;;;;9.52;1.88;;;;;;;;;;5069204;28;20012;-69
2023/03/31 02:42:07;;;;;;;6.55;1.60;;;;;;;;;;5068682;28;20024;-70
2023/03/31 02:44:36;;;;;;;8.70;2.08;;;;;;;;;;5068548;28;20116;-66
2023/03/31 02:47:02;;;;;;;3.75;1.70;;;;;;;;;;5068437;28;20025;-67
2023/03/31 02:49:28;;;;;;;5.60;1.85;;;;;;;;;;5067440;28;20385;-69
2023/03/31 02:52:02;;;;;;;10.68;1.70;;;;;;;;;;5070748;28;20025;-67
2023/03/31 02:54:30;;;;;;;11.57;2.03;;;;;;;;;;5068636;28;20640;-68
2023/03/31 02:56:58;;;;;;;7.50;2.05;;;;;;;;;;5066982;28;20465;-69
2023/03/31 02:59:29;;;;;;;6.00;1.83;;;;;;;;;;5068561;28;20412;-67
2023/03/31 03:02:07;;;;;;;6.10;1.98;;;;;;;;;;5068497;28;20012;-65
2023/03/31 03:04:52;;;;;;;12.57;2.00;;;;;;;;;;5067406;28;20330;-67
2023/03/31 03:07:44;;;;;;;5.10;1.95;;;;;;;;;;5051212;28;20031;-70
2023/03/31 03:10:09;;;;;;;14.63;2.50;;;;;;;;;;5067781;28;20028;-69
2023/03/31 03:12:40;;;;;;;9.52;2.60;;;;;;;;;;5068015;28;20017;-68
2023/03/31 03:15:16;;;;;;;9.40;2.45;;;;;;;;;;5068540;28;20028;-69
2023/03/31 03:17:43;;;;;;;10.98;2.58;;;;;;;;;;5066777;28;20093;-69
2023/03/31 03:20:09;;;;;;;6.20;1.75;;;;;;;;;;5068146;28;20017;-68
2023/03/31 03:22:36;;;;;;;4.28;1.70;;;;;;;;;;5073862;28;20025;-66
2023/03/31 03:25:01;;;;;;;7.70;2.55;;;;;;;;;;5068674;28;20016;-68
2023/03/31 03:27:27;;;;;;;14.10;2.08;;;;;;;;;;5067892;28;20025;-66
2023/03/31 03:29:52;;;;;;;6.88;2.08;;;;;;;;;;5084007;28;20020;-68
2023/03/31 03:32:17;;;;;;;11.75;2.03;;;;;;;;;;5069550;28;20553;-68
2023/03/31 03:34:43;;;;;;;8.85;2.15;;;;;;;;;;5067685;28;20033;-67
2023/03/31 03:37:08;;;;;;;4.60;1.75;;;;;;;;;;5068217;28;20032;-69
2023/03/31 03:39:34;;;;;;;6.45;1.80;;;;;;;;;;5078406;28;20012;-66
2023/03/31 03:41:59;;;;;;;7.60;1.70;;;;;;;;;;5068153;28;20396;-69
2023/03/31 03:44:24;;;;;;;5.15;1.80;;;;;;;;;;5067545;28;20012;-69
2023/03/31 03:46:50;;;;;;;9.05;1.75;;;;;;;;;;5067070;28;20027;-68
2023/03/31 03:49:15;;;;;;;10.48;1.80;;;;;;;;;;5066642;28;20023;-67
2023/03/31 03:51:40;;;;;;;10.00;1.95;;;;;;;;;;5067645;28;20016;-68
2023/03/31 03:54:05;;;;;;;9.23;2.42;;;;;;;;;;5074559;28;20031;-67
2023/03/31 03:56:31;;;;;;;8.85;2.08;;;;;;;;;;5066123;28;20502;-67
2023/03/31 03:58:56;;;;;;;8.95;1.70;;;;;;;;;;5068043;28;20028;-68
2023/03/31 04:01:21;;;;;;;9.85;2.22;;;;;;;;;;5068303;28;20013;-66
2023/03/31 04:03:47;;;;;;;10.15;2.50;;;;;;;;;;5066882;28;20079;-67
2023/03/31 04:06:12;;;;;;;8.45;1.90;;;;;;;;;;5067014;28;20017;-68
2023/03/31 04:08:37;;;;;;;6.40;1.63;;;;;;;;;;5069438;28;20047;-67
2023/03/31 04:11:03;;;;;;;3.30;1.52;;;;;;;;;;5067577;28;20020;-68
2023/03/31 04:13:28;;;;;;;10.90;2.00;;;;;;;;;;5067303;28;20175;-70
2023/03/31 04:15:53;;;;;;;7.65;1.67;;;;;;;;;;5073371;28;20074;-70
2023/03/31 04:18:24;;;;;;;10.32;1.80;;;;;;;;;;5081227;28;20029;-68
2023/03/31 04:21:02;;;;;;;7.75;1.70;;;;;;;;;;5053137;28;20020;-71
2023/03/31 04:23:28;;;;;;;8.40;2.63;;;;;;;;;;5088510;28;20055;-69
2023/03/31 04:25:54;;;;;;;12.80;2.30;;;;;;;;;;5079168;28;20024;-66
2023/03/31 04:28:19;;;;;;;7.25;2.05;;;;;;;;;;5071591;28;20020;-68
2023/03/31 04:30:44;;;;;;;13.15;2.35;;;;;;;;;;5067426;28;20017;-67
2023/03/31 04:33:10;;;;;;;8.43;1.95;;;;;;;;;;5066212;28;20020;-70
2023/03/31 04:35:51;;;;;;;14.05;2.42;;;;;;;;;;5081335;28;20039;-68
2023/03/31 04:38:20;;;;;;;5.82;1.70;;;;;;;;;;5089927;28;20038;-66
2023/03/31 04:40:46;;;;;;;10.38;1.70;;;;;;;;;;5094434;28;20047;-66
2023/03/31 04:43:11;;;;;;;10.77;2.25;;;;;;;;;;5079263;28;20037;-68
2023/03/31 04:45:36;;;;;;;5.38;1.70;;;;;;;;;;5085206;28;20011;-67
2023/03/31 04:48:02;;;;;;;3.03;1.42;;;;;;;;;;5083787;28;20035;-68
2023/03/31 04:50:27;;;;;;;10.32;1.75;;;;;;;;;;5090390;28;20035;-68
2023/03/31 04:52:52;;;;;;;8.25;1.90;;;;;;;;;;5087760;28;20419;-69
2023/03/31 04:55:17;;;;;;;5.22;1.63;;;;;;;;;;5099295;28;20030;-67
2023/03/31 04:57:43;;;;;;;12.60;1.98;;;;;;;;;;5076362;28;20124;-66
2023/03/31 05:00:09;;;;;;;10.52;2.00;;;;;;;;;;5070428;28;20025;-72
2023/03/31 05:02:35;;;;;;;14.82;2.33;;;;;;;;;;5069868;28;20086;-69
2023/03/31 05:05:00;;;;;;;6.30;2.35;;;;;;;;;;5082392;28;20461;-69
2023/03/31 05:07:25;;;;;;;8.13;1.65;;;;;;;;;;5095532;28;20024;-66
2023/03/31 05:09:51;;;;;;;7.18;1.75;;;;;;;;;;5082814;28;20024;-68
2023/03/31 05:12:16;;;;;;;8.30;1.63;;;;;;;;;;5088987;28;20024;-68
2023/03/31 05:14:41;;;;;;;9.18;2.20;;;;;;;;;;5070162;28;20441;-68
2023/03/31 05:17:06;;;;;;;4.40;1.45;;;;;;;;;;5075207;28;20020;-68
2023/03/31 05:19:32;;;;;;;6.80;1.95;;;;;;;;;;5098680;28;20078;-66
2023/03/31 05:21:57;;;;;;;4.97;2.00;;;;;;;;;;5084288;28;20030;-66
2023/03/31 05:24:22;;;;;;;4.85;1.77;;;;;;;;;;5070282;28;20381;-68
2023/03/31 05:26:51;;;;;;;10.57;2.08;;;;;;;;;;5074162;28;20024;-68
2023/03/31 05:29:17;;;;;;;14.20;2.88;;;;;;;;;;5083111;28;20475;-70
2023/03/31 05:31:42;;;;;;;8.20;2.05;;;;;;;;;;5069684;28;20119;-72
2023/03/31 05:34:07;;;;;;;7.30;1.70;;;;;;;;;;5086475;28;20138;-71
2023/03/31 05:36:33;;;;;;;7.65;2.17;;;;;;;;;;5076261;28;20084;-70
2023/03/31 05:38:59;;;;;;;8.73;1.83;;;;;;;;;;5081394;28;20020;-66
2023/03/31 05:41:25;;;;;;;6.25;1.50;;;;;;;;;;5089576;28;20032;-66
2023/03/31 05:43:50;;;;;;;5.60;1.60;;;;;;;;;;5077149;28;20016;-66
2023/03/31 05:46:18;;;;;;;7.00;2.58;;;;;;;;;;5085909;28;20024;-66
2023/03/31 05:48:44;;;;;;;5.72;1.30;;;;;;;;;;5082181;28;20057;-67
2023/03/31 05:51:09;;;;;;;5.18;1.52;;;;;;;;;;5082416;28;20036;-70
2023/03/31 05:53:34;;;;;;;10.00;1.77;;;;;;;;;;5086340;28;20518;-67
2023/03/31 05:56:01;;;;;;;6.72;1.60;;;;;;;;;;5083477;28;20021;-69
2023/03/31 05:58:26;;;;;;;8.05;2.58;;;;;;;;;;5070032;28;20104;-66
2023/03/31 06:01:05;;;;;;;10.70;2.03;;;;;;;;;;5071330;28;20218;-69
2023/03/31 06:03:32;;;;;;;4.03;1.80;;;;;;;;;;5069438;28;20021;-68
2023/03/31 06:05:57;;;;;;;7.15;1.80;;;;;;;;;;5069955;28;20008;-69
2023/03/31 06:08:23;;;;;;;9.05;2.13;;;;;;;;;;5071641;28;20554;-67
2023/03/31 06:10:48;;;;;;;6.90;1.58;;;;;;;;;;5073476;28;20016;-66
2023/03/31 06:13:13;;;;;;;9.45;2.45;;;;;;;;;;5074185;28;20123;-68
2023/03/31 06:15:38;;;;;;;7.43;1.88;;;;;;;;;;5070266;28;20024;-67
2023/03/31 06:18:06;;;;;;;5.32;1.52;;;;;;;;;;5067564;28;20397;-69
2023/03/31 06:20:31;;;;;;;7.70;1.77;;;;;;;;;;5069626;28;20289;-67
2023/03/31 06:22:56;;;;;;;7.45;1.52;;;;;;;;;;5085009;28;20046;-68
2023/03/31 06:25:22;;;;;;;7.63;1.92;;;;;;;;;;5091926;28;20035;-67
2023/03/31 06:27:47;;;;;;;4.05;1.75;;;;;;;;;;5085592;28;20501;-66
2023/03/31 06:30:12;;;;;;;9.35;2.05;;;;;;;;;;5095430;28;20101;-68
2023/03/31 06:32:37;;;;;;;8.35;1.77;;;;;;;;;;5077165;28;20024;-67
2023/03/31 06:35:03;;;;;;;10.98;1.95;;;;;;;;;;5074959;28;20024;-69
2023/03/31 06:37:28;;;;;;;11.25;2.10;;;;;;;;;;5087586;28;20465;-69
2023/03/31 06:39:53;;;;;;;10.60;2.70;;;;;;;;;;5076618;28;20103;-66
2023/03/31 06:42:18;;;;;;;15.25;2.50;;;;;;;;;;5069283;28;20021;-70
2023/03/31 06:44:44;;;;;;;7.65;2.28;;;;;;;;;;5068642;28;20019;-66
2023/03/31 06:47:09;;;;;;;7.97;1.92;;;;;;;;;;5067980;28;20021;-71
2023/03/31 06:49:34;;;;;;;6.43;1.90;;;;;;;;;;5070139;28;20095;-69
2023/03/31 06:52:00;;;;;;;5.60;1.70;;;;;;;;;;5068608;28;20017;-69
2023/03/31 06:54:25;;;;;;;6.20;1.77;;;;;;;;;;5075896;28;20058;-67
2023/03/31 06:56:50;;;;;;;4.00;1.70;;;;;;;;;;5073207;28;20031;-70
2023/03/31 06:59:15;;;;;;;11.45;2.42;;;;;;;;;;5071079;28;20021;-66
2023/03/31 07:01:41;;;;;;;10.13;2.33;;;;;;;;;;5068481;28;20012;-70
2023/03/31 07:04:06;;;;;;;7.50;2.20;;;;;;;;;;5078349;28;20069;-68
2023/03/31 07:06:32;;;;;;;9.70;3.00;;;;;;;;;;5087040;28;20024;-67
2023/03/31 07:08:57;;;;;;;7.05;2.35;;;;;;;;;;5081831;28;20074;-69
2023/03/31 07:11:22;;;;;;;6.40;2.00;;;;;;;;;;5080150;28;20187;-66
2023/03/31 07:13:47;;;;;;;7.85;1.90;;;;;;;;;;5089210;28;20036;-68
2023/03/31 07:16:13;;;;;;;8.07;1.73;;;;;;;;;;5070056;28;20094;-66
2023/03/31 07:18:40;;;;;;;6.85;2.05;;;;;;;;;;5067243;28;20030;-67
2023/03/31 07:21:06;;;;;;;9.50;2.20;;;;;;;;;;5069195;28;20050;-69
2023/03/31 07:23:32;;;;;;;6.47;1.77;;;;;;;;;;5068513;28;20028;-66
2023/03/31 07:26:01;;;;;;;7.15;1.48;;;;;;;;;;5068164;28;20424;-69
2023/03/31 07:28:26;;;;;;;6.03;1.83;;;;;;;;;;5068239;28;20024;-69
2023/03/31 07:30:51;;;;;;;5.18;1.52;;;;;;;;;;5068456;28;20135;-66
2023/03/31 07:33:17;;;;;;;8.25;2.03;;;;;;;;;;5066901;28;20478;-69
2023/03/31 07:35:42;;;;;;;6.80;2.00;;;;;;;;;;5089696;22;20055;-69
2023/03/31 07:38:08;;;;;;;7.53;2.17;;;;;;;;;;5086946;28;20477;-68
2023/03/31 07:40:33;;;;;;;8.75;2.80;;;;;;;;;;5087507;28;20075;-69
2023/03/31 07:42:59;;;;;;;7.60;2.13;;;;;;;;;;5099111;28;20028;-70
2023/03/31 07:45:25;;;;;;;3.63;1.73;;;;;;;;;;5087691;28;20348;-68
2023/03/31 07:47:50;;;;;;;8.13;2.10;;;;;;;;;;5070794;28;20100;-69
2023/03/31 07:50:16;;;;;;;5.88;1.95;;;;;;;;;;5084129;28;20021;-70
2023/03/31 07:52:41;;;;;;;10.57;1.95;;;;;;;;;;5072662;28;20059;-69
2023/03/31 07:55:07;;;;;;;13.75;2.22;;;;;;;;;;5083840;28;20023;-69
2023/03/31 07:57:33;;;;;;;7.10;1.77;;;;;;;;;;5069097;28;20063;-69
2023/03/31 07:59:58;;;;;;;10.88;1.73;;;;;;;;;;5071643;28;20425;-69
2023/03/31 08:02:23;;;;;;;8.50;1.92;;;;;;;;;;5070427;28;20032;-69
2023/03/31 08:04:48;;;;;;;8.07;2.13;;;;;;;;;;5069410;28;20020;-70
2023/03/31 08:07:15;;;;;;;8.38;2.05;;;;;;;;;;5063672;28;20012;-69
2023/03/31 08:09:42;;;;;;;4.35;1.60;;;;;;;;;;5078189;28;20107;-70
2023/03/31 08:12:07;;;;;;;12.23;2.35;;;;;;;;;;5092808;28;20024;-68
2023/03/31 08:14:33;;;;;;;12.13;2.05;;;;;;;;;;5076473;28;20044;-69
2023/03/31 08:16:59;;;;;;;7.78;1.60;;;;;;;;;;5076309;28;20100;-70
2023/03/31 08:19:24;;;;;;;12.75;2.40;;;;;;;;;;5082699;28;20477;-68
2023/03/31 08:21:51;;;;;;;16.75;3.08;;;;;;;;;;5072833;28;20100;-69
2023/03/31 08:24:16;;;;;;;11.27;2.83;;;;;;;;;;5082947;28;20020;-69
2023/03/31 08:26:41;;;;;;;8.05;2.35;;;;;;;;;;5076228;28;20525;-70
2023/03/31 08:29:06;;;;;;;15.52;2.65;;;;;;;;;;5072608;28;20024;-70
2023/03/31 08:31:32;;;;;;;9.60;2.00;;;;;;;;;;5089098;28;20532;-69
2023/03/31 08:33:57;;;;;;;10.88;2.15;;;;;;;;;;5082904;28;20029;-69
2023/03/31 08:36:22;;;;;;;11.73;2.38;;;;;;;;;;5071354;28;20028;-68
2023/03/31 08:38:48;;;;;;;7.65;2.35;;;;;;;;;;5054179;28;20028;-69
2023/03/31 08:41:19;;;;;;;6.93;1.67;;;;;;;;;;5068503;28;20100;-68
2023/03/31 08:43:45;;;;;;;11.15;2.03;;;;;;;;;;5072298;28;20020;-70
2023/03/31 08:46:12;;;;;;;8.25;1.77;;;;;;;;;;5088512;28;20062;-71
2023/03/31 08:48:44;;;;;;;6.40;1.98;;;;;;;;;;5081506;28;20044;-69
2023/03/31 08:51:15;;;;;;;7.13;1.73;;;;;;;;;;5075468;28;20024;-70
2023/03/31 08:53:47;;;;;;;9.60;2.10;;;;;;;;;;5081260;28;20498;-70
2023/03/31 08:56:17;;;;;;;9.88;1.60;;;;;;;;;;5084965;28;20028;-70
2023/03/31 08:58:44;;;;;;;6.07;1.70;;;;;;;;;;5073458;28;20043;-70
2023/03/31 09:01:28;;;;;;;8.55;1.90;;;;;;;;;;5071910;28;20101;-70
2023/03/31 09:04:16;;;;;;;8.57;2.03;;;;;;;;;;5069744;28;20013;-69
2023/03/31 09:06:41;;;;;;;8.43;2.28;;;;;;;;;;5055462;28;20438;-69
2023/03/31 09:09:09;;;;;;;5.30;2.08;;;;;;;;;;5070330;28;20091;-69
2023/03/31 09:11:37;;;;;;;7.80;2.13;;;;;;;;;;5072122;28;20092;-70
2023/03/31 09:14:17;;;;;;;8.48;1.85;;;;;;;;;;5071408;28;20070;-70
2023/03/31 09:17:01;;;;;;;9.40;2.10;;;;;;;;;;5085209;28;20074;-70
2023/03/31 09:19:32;;;;;;;4.93;1.58;;;;;;;;;;5070509;28;20078;-70
2023/03/31 09:22:00;;;;;;;5.68;1.85;;;;;;;;;;5075346;28;20039;-69
2023/03/31 09:24:34;;;;;;;11.52;2.05;;;;;;;;;;5080761;28;20021;-70
2023/03/31 09:27:01;;;;;;;7.15;1.88;;;;;;;;;;5090304;28;20429;-71
2023/03/31 09:29:32;;;;;;;15.05;2.67;;;;;;;;;;5059410;28;20056;-70
2023/03/31 09:32:02;;;;;;;14.20;1.65;;;;;;;;;;5059339;28;20028;-71
2023/03/31 09:34:28;;;;;;;5.70;1.67;;;;;;;;;;5072185;28;20031;-70
2023/03/31 09:36:54;;;;;;;5.97;1.83;;;;;;;;;;5071806;28;20031;-70
2023/03/31 09:39:19;;;;;;;8.20;2.10;;;;;;;;;;5060110;28;20017;-71
2023/03/31 09:41:46;;;;;;;5.45;1.67;;;;;;;;;;5060401;28;20024;-70
2023/03/31 09:44:21;;;;;;;7.78;1.60;;;;;;;;;;5075279;28;20027;-68
2023/03/31 09:46:47;;;;;;;8.18;1.80;;;;;;;;;;5060394;28;20095;-70
2023/03/31 09:49:14;;;;;;;9.60;2.47;;;;;;;;;;5072399;28;20055;-70
2023/03/31 09:51:42;;;;;;;5.53;1.80;;;;;;;;;;5080435;28;20023;-70
2023/03/31 09:54:23;;;;;;;8.27;2.00;;;;;;;;;;5091974;28;20594;-70
2023/03/31 09:56:51;;;;;;;5.90;2.30;;;;;;;;;;5080927;28;20064;-70
2023/03/31 09:59:18;;;;;;;6.22;1.70;;;;;;;;;;5077644;28;20024;-70
2023/03/31 10:01:44;;;;;;;7.88;2.00;;;;;;;;;;5071125;28;20025;-70
2023/03/31 10:04:15;;;;;;;6.65;1.80;;;;;;;;;;5065081;28;20019;-70
2023/03/31 10:06:41;;;;;;;6.72;1.98;;;;;;;;;;5053935;28;20459;-68
2023/03/31 10:09:09;;;;;;;8.52;2.00;;;;;;;;;;5068955;28;20028;-69
2023/03/31 10:11:37;;;;;;;7.65;2.13;;;;;;;;;;5071350;28;20421;-69
2023/03/31 10:14:15;;;;;;;7.60;1.92;;;;;;;;;;5070026;28;20044;-69
2023/03/31 10:16:46;;;;;;;4.35;1.63;;;;;;;;;;5071573;28;20045;-69
2023/03/31 10:19:16;;;;;;;9.50;2.90;;;;;;;;;;5081793;28;20516;-70
2023/03/31 10:21:44;;;;;;;12.73;3.00;;;;;;;;;;5070434;28;20478;-69
2023/03/31 10:24:09;;;;;;;11.77;2.10;;;;;;;;;;5069658;28;20013;-69
2023/03/31 10:26:35;;;;;;;10.77;2.20;;;;;;;;;;5069193;28;20021;-70
2023/03/31 10:29:00;;;;;;;9.40;3.25;;;;;;;;;;5069453;28;20024;-69
2023/03/31 10:31:32;;;;;;;11.10;2.05;;;;;;;;;;5069891;28;20047;-69
2023/03/31 10:33:58;;;;;;;6.45;1.80;;;;;;;;;;5068889;28;20017;-69
2023/03/31 10:36:28;;;;;;;15.23;3.25;;;;;;;;;;5068148;28;20051;-71
2023/03/31 10:38:54;;;;;;;5.97;2.40;;;;;;;;;;5065993;28;20150;-69
2023/03/31 10:41:21;;;;;;;11.07;2.03;;;;;;;;;;5061776;28;20044;-69
2023/03/31 10:43:56;;;;;;;8.10;2.00;;;;;;;;;;5069575;28;20623;-69
2023/03/31 10:46:42;;;;;;;8.48;1.55;;;;;;;;;;5088761;28;20465;-73
2023/03/31 10:49:19;;;;;;;9.38;2.45;;;;;;;;;;5076170;28;20063;-69
2023/03/31 10:51:51;;;;;;;10.52;2.90;;;;;;;;;;5079734;28;20024;-70
2023/03/31 10:54:17;;;;;;;5.20;2.03;;;;;;;;;;5073024;28;20029;-69
2023/03/31 10:56:44;;;;;;;8.65;2.20;;;;;;;;;;5069393;28;20111;-69
2023/03/31 10:59:16;;;;;;;7.60;2.38;;;;;;;;;;5067703;28;20398;-70
2023/03/31 11:01:46;;;;;;;9.23;2.70;;;;;;;;;;5060916;28;20448;-70
2023/03/31 11:04:29;;;;;;;8.30;2.63;;;;;;;;;;5063419;28;20009;-71
2023/03/31 11:07:01;;;;;;;6.15;2.60;;;;;;;;;;5054066;28;20048;-70
2023/03/31 11:09:29;;;;;;;9.82;2.20;;;;;;;;;;5070022;28;20029;-69
2023/03/31 11:12:02;;;;;;;7.63;2.40;;;;;;;;;;5084427;28;20016;-70
2023/03/31 11:14:33;;;;;;;6.03;1.92;;;;;;;;;;5080130;28;20044;-70
2023/03/31 11:17:07;;;;;;;13.38;2.20;;;;;;;;;;5071520;28;20033;-70
2023/03/31 11:19:43;;;;;;;7.47;2.10;;;;;;;;;;5075272;28;20112;-70
2023/03/31 11:22:09;;;;;;;10.70;2.70;;;;;;;;;;5066465;28;20354;-72
2023/03/31 11:24:51;;;;;;;6.95;2.42;;;;;;;;;;5082496;28;20020;-69
2023/03/31 11:27:26;;;;;;;9.55;2.50;;;;;;;;;;5065354;28;20085;-70
2023/03/31 11:30:05;;;;;;;8.02;2.30;;;;;;;;;;5075509;28;20025;-68
2023/03/31 11:32:36;;;;;;;5.70;2.08;;;;;;;;;;5068581;28;20630;-68
2023/03/31 11:35:13;;;;;;;7.88;2.25;;;;;;;;;;5051487;28;20029;-70
2023/03/31 11:38:01;;;;;;;7.57;2.40;;;;;;;;;;5060259;28;20025;-70
2023/03/31 11:40:35;;;;;;;4.85;1.88;;;;;;;;;;5059309;28;20020;-69
2023/03/31 11:43:06;;;;;;;6.47;2.15;;;;;;;;;;5063805;28;20395;-70
2023/03/31 11:45:37;;;;;;;8.75;2.00;;;;;;;;;;5067302;28;20046;-70
2023/03/31 11:48:09;;;;;;;6.50;1.80;;;;;;;;;;5066883;28;20067;-70
2023/03/31 11:50:37;;;;;;;9.43;2.20;;;;;;;;;;5068051;28;20035;-71
2023/03/31 11:53:06;;;;;;;3.50;1.80;;;;;;;;;;5065554;28;20158;-69
2023/03/31 11:55:31;;;;;;;;;;;;;;;;;;5069466;28;20016;-70
2023/03/31 11:57:58;;;;;;;7.78;2.10;;;;;;;;;;5066890;28;19918;-69
2023/03/31 12:00:43;;;;;;;4.97;1.85;;;;;;;;;;5068611;28;20023;-69
2023/03/31 12:03:15;;;;;;;3.20;1.83;;;;;;;;;;5076169;28;20077;-70
2023/03/31 12:05:45;;;;;;;6.72;2.33;;;;;;;;;;5071793;28;20416;-69
2023/03/31 12:08:15;;;;;;;6.22;1.98;;;;;;;;;;5075401;28;20044;-70
2023/03/31 12:10:44;;;;;;;12.25;4.07;;;;;;;;;;5082225;28;20087;-70
2023/03/31 12:13:12;;;;;;;14.25;4.43;;;;;;;;;;5095678;28;20085;-68
2023/03/31 12:15:41;;;;;;;7.60;2.40;;;;;;;;;;5070765;28;20056;-70
2023/03/31 12:18:16;;;;;;;15.38;3.40;;;;;;;;;;5069364;28;20031;-69
2023/03/31 12:20:46;;;;;;;6.35;3.22;;;;;;;;;;5064530;28;20103;-70
2023/03/31 12:23:14;;;;;;;5.97;2.10;;;;;;;;;;5089676;28;20025;-69
2023/03/31 12:25:45;;;;;;;10.63;2.83;;;;;;;;;;5090735;28;20024;-69
2023/03/31 12:28:10;;;;;;;8.95;3.92;;;;;;;;;;5086545;28;20070;-70
2023/03/31 12:30:40;;;;;;;6.25;2.58;;;;;;;;;;5077109;28;20040;-69
2023/03/31 12:33:11;;;;;;;6.13;2.53;;;;;;;;;;5068922;28;20037;-70
2023/03/31 12:35:55;;;;;;;7.63;2.90;;;;;;;;;;5059826;28;20046;-70
2023/03/31 12:38:40;;;;;;;7.50;2.50;;;;;;;;;;5070980;28;20016;-69
2023/03/31 12:41:18;;;;;;;9.50;3.53;;;;;;;;;;5017808;28;20386;-71
2023/03/31 12:43:44;;;;;;;6.65;2.35;;;;;;;;;;5069799;28;20355;-70
2023/03/31 12:46:35;;;;;;;8.43;2.15;;;;;;;;;;5066744;28;20470;-70
2023/03/31 12:49:08;;;;;;;6.30;1.60;;;;;;;;;;5064066;28;20127;-68
2023/03/31 12:51:37;;;;;;;6.93;2.13;;;;;;;;;;5073553;28;20051;-70
2023/03/31 12:54:18;;;;;;;6.47;2.55;;;;;;;;;;5076896;28;20024;-70
2023/03/31 12:57:14;;;;;;;7.80;3.10;;;;;;;;;;5067934;28;20032;-69
2023/03/31 12:59:40;;;;;;;3.42;1.42;;;;;;;;;;5050987;28;20040;-71
2023/03/31 13:02:08;;;;;;;5.75;1.67;;;;;;;;;;5071003;28;20035;-68
2023/03/31 13:04:35;;;;;;;6.15;2.17;;;;;;;;;;5073031;28;20021;-67
2023/03/31 13:07:01;;;;;;;1.73;0.93;;;;;;;;;;5071034;28;20035;-68
2023/03/31 13:09:32;;;;;;;5.18;2.05;;;;;;;;;;5072890;28;20103;-69
2023/03/31 13:11:58;;;;;;;2.40;1.17;;;;;;;;;;5083078;28;20068;-69
2023/03/31 13:14:26;;;;;;;3.72;1.10;;;;;;;;;;5063807;28;20046;-69
2023/03/31 13:16:54;;;;;;;6.60;1.50;;;;;;;;;;5064042;28;20017;-70
2023/03/31 13:19:28;;;;;;;4.53;1.10;;;;;;;;;;5083762;28;20060;-69
2023/03/31 13:21:55;;;;;;;4.72;1.10;;;;;;;;;;5078130;28;20259;-70
2023/03/31 13:24:26;;;;;;;3.55;1.08;;;;;;;;;;5090588;28;20020;-69
2023/03/31 13:26:52;;;;;;;2.25;1.00;;;;;;;;;;5090981;28;20016;-69
2023/03/31 13:29:17;;;;;;;3.13;1.10;;;;;;;;;;5091254;28;20027;-70
2023/03/31 13:32:01;;;;;;;2.53;0.90;;;;;;;;;;5074501;28;20020;-69
2023/03/31 13:34:31;;;;;;;5.22;0.85;;;;;;;;;;5070203;28;20390;-69
2023/03/31 13:37:15;;;;;;;1.80;0.70;;;;;;;;;;5095040;22;20101;-67
2023/03/31 13:40:08;;;;;;;3.90;1.20;;;;;;;;;;5068949;28;20086;-68
2023/03/31 13:42:54;;;;;;;2.45;0.90;;;;;;;;;;5079104;28;20020;-69
2023/03/31 13:45:19;;;;;;;2.40;0.90;;;;;;;;;;5074062;28;20015;-66
2023/03/31 13:48:02;;;;;;;2.60;1.08;;;;;;;;;;5089913;28;20504;-69
2023/03/31 13:50:49;;;;;;;1.48;0.80;;;;;;;;;;5078977;28;20089;-65
2023/03/31 13:53:24;;;;;;;2.97;0.75;;;;;;;;;;5077046;28;20020;-68
2023/03/31 13:55:58;;;;;;;1.33;0.80;;;;;;;;;;5076938;28;20508;-68
2023/03/31 13:58:46;;;;;;;1.38;0.65;;;;;;;;;;5068967;28;21913;-65
2023/03/31 14:01:31;;;;;;;2.78;1.13;;;;;;;;;;5078952;28;20016;-69
2023/03/31 14:04:32;;;;;;;2.47;1.10;;;;;;;;;;5088435;28;20389;-67
2023/03/31 14:06:59;;;;;;;1.27;0.80;;;;;;;;;;5026213;28;20026;-66
2023/03/31 14:09:32;;;;;;;1.80;0.82;;;;;;;;;;5075313;28;20532;-66
2023/03/31 14:11:58;;;;;;;4.60;1.00;;;;;;;;;;5089566;28;20012;-67
2023/03/31 14:14:24;;;;;;;3.67;0.80;;;;;;;;;;5089959;28;20047;-67
2023/03/31 14:16:54;;;;;;;2.00;0.90;;;;;;;;;;5088749;28;20051;-70
2023/03/31 14:19:32;;;;;;;2.53;1.08;;;;;;;;;;5079464;28;20391;-67
2023/03/31 14:21:57;;;;;;;2.38;0.98;;;;;;;;;;5110415;28;20029;-66
2023/03/31 14:24:31;;;;;;;4.50;1.30;;;;;;;;;;5097495;28;20096;-68
2023/03/31 14:27:13;;;;;;;4.03;1.10;;;;;;;;;;5081611;28;20231;-69
2023/03/31 14:29:38;;;;;;;2.55;0.93;;;;;;;;;;5089249;28;20024;-69
2023/03/31 14:32:25;;;;;;;3.47;1.00;;;;;;;;;;5088819;28;20163;-67
2023/03/31 14:35:14;;;;;;;4.15;1.10;;;;;;;;;;5085419;28;20501;-67
2023/03/31 14:37:39;;;;;;;11.07;1.55;;;;;;;;;;5079736;28;20043;-68
2023/03/31 14:40:08;;;;;;;2.17;0.80;;;;;;;;;;5078460;28;20054;-69
2023/03/31 14:42:38;;;;;;;5.50;1.17;;;;;;;;;;5089768;28;20020;-68
2023/03/31 14:45:05;;;;;;;2.88;1.00;;;;;;;;;;5090116;28;20100;-68
2023/03/31 14:47:30;;;;;;;4.63;0.82;;;;;;;;;;5077294;28;20762;-65
2023/03/31 14:50:06;;;;;;;4.25;1.10;;;;;;;;;;5071609;28;20036;-66
2023/03/31 14:52:32;;;;;;;2.70;0.70;;;;;;;;;;5072414;28;20044;-66
2023/03/31 14:54:58;;;;;;;4.65;0.95;;;;;;;;;;5075209;28;20021;-65